Terminal Aerodrome Forecast
Issued by NWS Grand Forks, ND

Home | Current Version | Previous Version | Text Only | Print | Product List | Glossary On
Versions: 1 2 3 4 5 6 7 8 9 10 11 12 13 14 15 16 17 18 19 20 21
970
FTUS43 KFGF 081730
TAFFAR
TAF
KFAR 081730Z 0818/0918 34022G32KT 3SM BLSN SCT012
      TEMPO 0818/0822 1/2SM -SN BLSN OVC015
     FM082200 34018G26KT P6SM BKN025
     FM090000 34016KT P6SM SCT050
     FM091200 34011KT P6SM BKN250=

USA.gov is the U.S. government's official web portal to all federal, state and local government web resources and services.